createdAt,value
2023-01-17T00:00:36.501Z,3.64
2023-01-17T00:01:39.509Z,3.65
2023-01-17T00:02:42.696Z,3.66
2023-01-17T00:04:04.219Z,3.67
2023-01-17T00:05:25.943Z,3.68
2023-01-17T00:06:47.272Z,3.68
2023-01-17T00:08:08.859Z,3.68
2023-01-17T00:09:31.400Z,3.70
2023-01-17T00:10:36.419Z,3.70
2023-01-17T00:11:39.661Z,3.71
2023-01-17T00:12:48.600Z,3.72
2023-01-17T00:13:51.799Z,3.72
2023-01-17T00:14:55.959Z,3.72
2023-01-17T00:15:59.156Z,3.73
2023-01-17T00:17:02.277Z,3.74
2023-01-17T00:18:05.428Z,3.73
2023-01-17T00:19:26.709Z,3.73
2023-01-17T00:20:49.895Z,3.72
2023-01-17T00:21:54.758Z,3.71
2023-01-17T00:23:16.216Z,3.69
2023-01-17T00:24:37.606Z,3.67
2023-01-17T00:25:59.146Z,3.62
2023-01-17T00:27:13.996Z,3.62
2023-01-17T00:28:17.250Z,3.56
2023-01-17T00:29:20.175Z,3.56
2023-01-17T00:30:23.214Z,3.54
2023-01-17T00:31:26.122Z,3.54
2023-01-17T00:32:29.002Z,3.55
2023-01-17T00:33:32.455Z,3.54
2023-01-17T00:34:35.363Z,3.56
2023-01-17T00:35:38.551Z,3.56
2023-01-17T00:36:41.569Z,3.57
2023-01-17T00:37:44.562Z,3.57
2023-01-17T00:38:47.484Z,3.57
2023-01-17T00:39:50.371Z,3.57
2023-01-17T00:40:53.380Z,3.58
2023-01-17T00:41:57.077Z,3.58
2023-01-17T00:43:18.765Z,3.57
2023-01-17T00:44:40.148Z,3.54
2023-01-17T00:46:02.424Z,3.54
2023-01-17T00:47:24.138Z,3.49
2023-01-17T00:48:45.488Z,3.44
2023-01-17T00:50:07.065Z,3.39
2023-01-17T00:51:28.736Z,3.35
2023-01-17T00:52:50.316Z,3.30
2023-01-17T00:54:11.958Z,3.26
2023-01-17T00:55:33.643Z,3.22
2023-01-17T00:56:55.476Z,3.16
2023-01-17T00:58:17.047Z,3.12
2023-01-17T00:59:38.716Z,3.08
2023-01-17T01:01:00.406Z,3.04
2023-01-17T01:02:21.822Z,3.01
2023-01-17T01:03:43.088Z,2.99
2023-01-17T01:05:04.710Z,2.94
2023-01-17T01:06:27.161Z,2.91
2023-01-17T01:07:48.694Z,2.89
2023-01-17T01:09:10.385Z,2.84
2023-01-17T01:10:31.965Z,2.81
2023-01-17T01:11:53.716Z,2.76
2023-01-17T01:13:15.382Z,2.74
2023-01-17T01:14:36.783Z,2.70
2023-01-17T01:15:58.081Z,2.66
2023-01-17T01:17:19.568Z,2.62
2023-01-17T01:18:41.119Z,2.57
2023-01-17T01:20:02.694Z,2.51
2023-01-17T01:21:24.201Z,2.46
2023-01-17T01:22:45.837Z,2.43
2023-01-17T01:24:07.482Z,2.38
2023-01-17T01:25:29.191Z,2.35
2023-01-17T01:26:50.558Z,2.32
2023-01-17T01:28:13.421Z,2.29
2023-01-17T01:29:35.079Z,2.27
2023-01-17T01:30:56.613Z,2.24
2023-01-17T01:32:17.865Z,2.21
2023-01-17T01:33:20.769Z,2.20
2023-01-17T01:34:23.966Z,2.19
2023-01-17T01:35:27.110Z,2.18
2023-01-17T01:36:30.372Z,2.19
2023-01-17T01:37:33.412Z,2.20
2023-01-17T01:38:36.781Z,2.20
2023-01-17T01:39:39.846Z,2.22
2023-01-17T01:40:46.085Z,2.23
2023-01-17T01:41:49.158Z,2.24
2023-01-17T01:42:55.086Z,2.24
2023-01-17T01:43:58.294Z,2.23
2023-01-17T01:45:03.059Z,2.24
2023-01-17T01:46:08.426Z,2.24
2023-01-17T01:47:17.310Z,2.24
2023-01-17T01:48:30.112Z,2.24
2023-01-17T01:49:33.207Z,2.24
2023-01-17T01:50:36.998Z,2.24
2023-01-17T01:51:43.310Z,2.23
2023-01-17T01:52:49.710Z,2.23
2023-01-17T01:53:55.889Z,2.22
2023-01-17T01:55:02.476Z,2.21
2023-01-17T01:56:09.335Z,2.21
2023-01-17T01:57:15.969Z,2.19
2023-01-17T01:58:25.398Z,2.20
2023-01-17T01:59:30.262Z,2.18
2023-01-17T02:00:36.013Z,2.17
2023-01-17T02:01:39.325Z,2.16
2023-01-17T02:02:43.970Z,2.16
2023-01-17T02:03:48.803Z,2.15
2023-01-17T02:04:52.164Z,2.15
2023-01-17T02:05:56.053Z,2.14
2023-01-17T02:07:07.620Z,2.11
2023-01-17T02:08:14.768Z,2.11
2023-01-17T02:09:19.745Z,2.09
2023-01-17T02:10:23.535Z,2.08
2023-01-17T02:11:27.197Z,2.07
2023-01-17T02:12:30.790Z,2.06
2023-01-17T02:13:33.847Z,2.06
2023-01-17T02:14:36.895Z,2.06
2023-01-17T02:16:04.872Z,2.05
2023-01-17T02:17:26.518Z,2.07
2023-01-17T02:18:53.101Z,2.06
2023-01-17T02:20:21.014Z,2.05
2023-01-17T02:21:36.564Z,2.04
2023-01-17T02:23:07.597Z,2.03
2023-01-17T02:24:21.175Z,2.01
2023-01-17T02:25:43.621Z,2.01
2023-01-17T02:27:03.268Z,1.98
2023-01-17T02:28:29.866Z,1.94
2023-01-17T02:30:09.770Z,1.92
2023-01-17T02:31:19.169Z,1.88
2023-01-17T02:32:34.494Z,1.85
2023-01-17T02:33:46.857Z,1.82
2023-01-17T02:35:08.427Z,1.82
2023-01-17T02:36:24.243Z,1.80
2023-01-17T02:37:56.814Z,1.79
2023-01-17T02:39:03.559Z,1.79
2023-01-17T02:40:10.915Z,1.78
2023-01-17T02:41:17.541Z,1.78
2023-01-17T02:42:25.684Z,1.78
2023-01-17T02:43:29.085Z,1.80
2023-01-17T02:44:35.782Z,1.81
2023-01-17T02:45:38.860Z,1.82
2023-01-17T02:46:51.292Z,1.82
2023-01-17T02:47:54.451Z,1.84
2023-01-17T02:48:58.210Z,1.83
2023-01-17T02:50:10.857Z,1.83
2023-01-17T02:51:32.585Z,1.83
2023-01-17T02:52:57.432Z,1.84
2023-01-17T02:54:10.141Z,1.84
2023-01-17T02:55:19.516Z,1.85
2023-01-17T02:56:42.556Z,1.84
2023-01-17T02:58:06.786Z,1.84
2023-01-17T02:59:16.176Z,1.85
2023-01-17T03:00:34.953Z,1.83
2023-01-17T03:01:53.668Z,1.82
2023-01-17T03:03:09.484Z,1.81
2023-01-17T03:04:21.937Z,1.80
2023-01-17T03:05:55.731Z,1.79
2023-01-17T03:07:02.458Z,1.79
2023-01-17T03:08:07.067Z,1.76
2023-01-17T03:09:10.366Z,1.76
2023-01-17T03:10:17.419Z,1.75
2023-01-17T03:11:20.806Z,1.74
2023-01-17T03:12:29.485Z,1.73
2023-01-17T03:13:32.644Z,1.72
2023-01-17T03:14:35.703Z,1.72
2023-01-17T03:15:39.969Z,1.73
2023-01-17T03:16:43.951Z,1.73
2023-01-17T03:17:50.211Z,1.73
2023-01-17T03:18:56.435Z,1.74
2023-01-17T03:19:59.584Z,1.74
2023-01-17T03:21:02.860Z,1.74
2023-01-17T03:22:05.926Z,1.75
2023-01-17T03:23:09.181Z,1.76
2023-01-17T03:24:12.414Z,1.77
2023-01-17T03:25:16.812Z,1.76
2023-01-17T03:26:19.985Z,1.77
2023-01-17T03:27:23.056Z,1.76
2023-01-17T03:28:26.198Z,1.76
2023-01-17T03:29:29.276Z,1.77
2023-01-17T03:30:32.480Z,1.75
2023-01-17T03:31:35.513Z,1.76
2023-01-17T03:32:38.557Z,1.76
2023-01-17T03:33:41.799Z,1.76
2023-01-17T03:34:44.985Z,1.76
2023-01-17T03:35:48.059Z,1.76
2023-01-17T03:36:51.229Z,1.76
2023-01-17T03:37:54.385Z,1.76
2023-01-17T03:38:57.445Z,1.75
2023-01-17T03:40:00.520Z,1.75
2023-01-17T03:41:04.210Z,1.74
2023-01-17T03:42:07.379Z,1.73
2023-01-17T03:43:11.256Z,1.72
2023-01-17T03:44:14.428Z,1.71
2023-01-17T03:45:17.714Z,1.72
2023-01-17T03:46:23.395Z,1.71
2023-01-17T03:47:26.565Z,1.72
2023-01-17T03:48:29.806Z,1.72
2023-01-17T03:49:32.892Z,1.72
2023-01-17T03:50:36.323Z,1.72
2023-01-17T03:51:39.496Z,1.71
2023-01-17T03:52:42.636Z,1.71
2023-01-17T03:53:49.389Z,1.70
2023-01-17T03:54:52.645Z,1.68
2023-01-17T03:55:55.718Z,1.66
2023-01-17T03:56:58.807Z,1.65
2023-01-17T03:58:01.872Z,1.64
2023-01-17T03:59:04.997Z,1.63
2023-01-17T04:00:09.294Z,1.62
2023-01-17T04:01:12.541Z,1.61
2023-01-17T04:02:15.715Z,1.59
2023-01-17T04:03:19.053Z,1.59
2023-01-17T04:04:22.567Z,1.57
2023-01-17T04:05:25.765Z,1.56
2023-01-17T04:06:29.053Z,1.56
2023-01-17T04:07:32.147Z,1.54
2023-01-17T04:08:35.309Z,1.53
2023-01-17T04:09:38.458Z,1.53
2023-01-17T04:10:41.597Z,1.53
2023-01-17T04:11:44.632Z,1.53
2023-01-17T04:12:47.971Z,1.52
2023-01-17T04:13:51.117Z,1.51
2023-01-17T04:14:54.058Z,1.51
2023-01-17T04:15:57.193Z,1.50
2023-01-17T04:17:00.840Z,1.46
2023-01-17T04:18:04.893Z,1.46
2023-01-17T04:19:11.542Z,1.44
2023-01-17T04:20:20.960Z,1.43
2023-01-17T04:21:24.240Z,1.41
2023-01-17T04:22:27.382Z,1.41
2023-01-17T04:23:30.575Z,1.40
2023-01-17T04:24:33.532Z,1.40
2023-01-17T04:25:36.784Z,1.40
2023-01-17T04:26:39.854Z,1.40
2023-01-17T04:27:42.990Z,1.40
2023-01-17T04:28:46.184Z,1.41
2023-01-17T04:29:49.322Z,1.41
2023-01-17T04:30:52.335Z,1.41
2023-01-17T04:31:55.491Z,1.42
2023-01-17T04:32:58.518Z,1.43
2023-01-17T04:34:01.588Z,1.43
2023-01-17T04:35:06.576Z,1.42
2023-01-17T04:36:10.900Z,1.40
2023-01-17T04:37:14.057Z,1.40
2023-01-17T04:38:17.215Z,1.39
2023-01-17T04:39:20.322Z,1.38
2023-01-17T04:40:23.522Z,1.38
2023-01-17T04:41:26.765Z,1.38
2023-01-17T04:42:30.065Z,1.38
2023-01-17T04:43:33.222Z,1.38
2023-01-17T04:44:36.391Z,1.37
2023-01-17T04:45:39.749Z,1.38
2023-01-17T04:46:43.129Z,1.40
2023-01-17T04:47:46.271Z,1.41
2023-01-17T04:48:49.431Z,1.42
2023-01-17T04:49:53.188Z,1.46
2023-01-17T04:51:00.640Z,1.46
2023-01-17T04:52:03.914Z,1.49
2023-01-17T04:53:07.415Z,1.50
2023-01-17T04:54:10.766Z,1.53
2023-01-17T04:55:15.174Z,1.55
2023-01-17T04:56:19.351Z,1.56
2023-01-17T04:57:22.692Z,1.56
2023-01-17T04:58:26.184Z,1.58
2023-01-17T04:59:29.650Z,1.60
2023-01-17T05:00:33.326Z,1.62
2023-01-17T05:01:36.651Z,1.63
2023-01-17T05:02:39.984Z,1.63
2023-01-17T05:03:43.073Z,1.64
2023-01-17T05:04:46.248Z,1.64
2023-01-17T05:05:49.410Z,1.65
2023-01-17T05:06:52.786Z,1.66
2023-01-17T05:07:57.010Z,1.68
2023-01-17T05:09:02.016Z,1.69
2023-01-17T05:10:06.141Z,1.72
2023-01-17T05:11:09.336Z,1.73
2023-01-17T05:12:12.557Z,1.75
2023-01-17T05:13:15.876Z,1.76
2023-01-17T05:14:19.062Z,1.76
2023-01-17T05:15:22.765Z,1.78
2023-01-17T05:16:26.316Z,1.80
2023-01-17T05:17:29.468Z,1.81
2023-01-17T05:18:32.662Z,1.83
2023-01-17T05:19:35.837Z,1.86
2023-01-17T05:20:39.006Z,1.88
2023-01-17T05:21:42.060Z,1.90
2023-01-17T05:22:46.787Z,1.93
2023-01-17T05:23:50.265Z,1.95
2023-01-17T05:24:53.433Z,1.97
2023-01-17T05:25:56.575Z,2.00
2023-01-17T05:27:01.639Z,2.01
2023-01-17T05:28:05.149Z,2.03
2023-01-17T05:29:08.760Z,2.04
2023-01-17T05:30:13.461Z,2.04
2023-01-17T05:31:16.660Z,2.04
2023-01-17T05:32:19.689Z,2.05
2023-01-17T05:33:22.751Z,2.06
2023-01-17T05:34:25.949Z,2.06
2023-01-17T05:35:32.093Z,2.08
2023-01-17T05:36:35.061Z,2.08
2023-01-17T05:37:38.104Z,2.08
2023-01-17T05:38:41.171Z,2.09
2023-01-17T05:39:44.371Z,2.07
2023-01-17T05:40:47.414Z,2.07
2023-01-17T05:41:50.472Z,2.07
2023-01-17T05:42:56.060Z,2.08
2023-01-17T05:43:59.252Z,2.09
2023-01-17T05:45:02.434Z,2.12
2023-01-17T05:46:05.679Z,2.15
2023-01-17T05:47:08.782Z,2.17
2023-01-17T05:48:11.847Z,2.17
2023-01-17T05:49:15.027Z,2.19
2023-01-17T05:50:23.434Z,2.19
2023-01-17T05:51:26.423Z,2.19
2023-01-17T05:52:29.567Z,2.20
2023-01-17T05:53:32.685Z,2.23
2023-01-17T05:54:35.801Z,2.24
2023-01-17T05:55:40.068Z,2.26
2023-01-17T05:56:43.348Z,2.27
2023-01-17T05:57:46.600Z,2.29
2023-01-17T05:58:49.652Z,2.30
2023-01-17T05:59:52.722Z,2.32
2023-01-17T06:00:56.153Z,2.33
2023-01-17T06:01:59.181Z,2.34
2023-01-17T06:03:02.239Z,2.34
2023-01-17T06:04:05.428Z,2.33
2023-01-17T06:05:09.145Z,2.32
2023-01-17T06:06:13.587Z,2.33
2023-01-17T06:07:17.029Z,2.33
2023-01-17T06:08:20.122Z,2.35
2023-01-17T06:09:23.546Z,2.36
2023-01-17T06:10:27.951Z,2.40
2023-01-17T06:11:31.327Z,2.40
2023-01-17T06:12:34.659Z,2.42
2023-01-17T06:13:37.993Z,2.43
2023-01-17T06:14:41.392Z,2.45
2023-01-17T06:15:44.861Z,2.47
2023-01-17T06:16:48.081Z,2.50
2023-01-17T06:17:51.162Z,2.52
2023-01-17T06:18:54.319Z,2.55
2023-01-17T06:19:57.539Z,2.57
2023-01-17T06:21:00.598Z,2.58
2023-01-17T06:22:04.728Z,2.60
2023-01-17T06:23:11.031Z,2.64
2023-01-17T06:24:14.656Z,2.67
2023-01-17T06:25:17.826Z,2.66
2023-01-17T06:26:20.986Z,2.65
2023-01-17T06:27:24.046Z,2.63
2023-01-17T06:28:27.253Z,2.61
2023-01-17T06:29:30.439Z,2.59
2023-01-17T06:30:34.355Z,2.59
2023-01-17T06:31:37.567Z,2.58
2023-01-17T06:32:40.602Z,2.57
2023-01-17T06:33:43.768Z,2.58
2023-01-17T06:34:46.898Z,2.57
2023-01-17T06:35:51.486Z,2.57
2023-01-17T06:36:54.663Z,2.57
2023-01-17T06:37:59.755Z,2.59
2023-01-17T06:39:03.006Z,2.60
2023-01-17T06:40:07.258Z,2.63
2023-01-17T06:41:10.336Z,2.64
2023-01-17T06:42:13.610Z,2.67
2023-01-17T06:43:16.811Z,2.69
2023-01-17T06:44:19.990Z,2.69
2023-01-17T06:45:23.161Z,2.69
2023-01-17T06:46:26.350Z,2.70
2023-01-17T06:47:29.479Z,2.70
2023-01-17T06:48:32.739Z,2.69
2023-01-17T06:49:35.806Z,2.66
2023-01-17T06:50:38.934Z,2.62
2023-01-17T06:51:43.631Z,2.60
2023-01-17T06:52:56.435Z,2.56
2023-01-17T06:53:59.537Z,2.55
2023-01-17T06:55:02.627Z,2.50
2023-01-17T06:56:06.361Z,2.47
2023-01-17T06:57:09.523Z,2.47
2023-01-17T06:58:12.564Z,2.47
2023-01-17T06:59:15.776Z,2.47
2023-01-17T07:00:19.209Z,2.47
2023-01-17T07:01:22.525Z,2.48
2023-01-17T07:02:25.795Z,2.48
2023-01-17T07:03:29.122Z,2.50
2023-01-17T07:04:34.126Z,2.51
2023-01-17T07:05:37.340Z,2.53
2023-01-17T07:06:40.642Z,2.56
2023-01-17T07:07:45.031Z,2.60
2023-01-17T07:08:48.411Z,2.63
2023-01-17T07:09:51.497Z,2.66
2023-01-17T07:10:58.358Z,2.69
2023-01-17T07:12:01.978Z,2.72
2023-01-17T07:13:05.136Z,2.74
2023-01-17T07:14:11.759Z,2.75
2023-01-17T07:15:15.001Z,2.79
2023-01-17T07:16:18.056Z,2.82
2023-01-17T07:17:21.199Z,2.84
2023-01-17T07:18:24.376Z,2.84
2023-01-17T07:19:27.529Z,2.85
2023-01-17T07:20:30.810Z,2.86
2023-01-17T07:21:33.860Z,2.89
2023-01-17T07:22:37.101Z,2.90
2023-01-17T07:23:40.256Z,2.89
2023-01-17T07:24:43.415Z,2.91
2023-01-17T07:25:54.740Z,2.93
2023-01-17T07:26:58.005Z,2.96
2023-01-17T07:28:01.190Z,2.97
2023-01-17T07:29:04.770Z,2.99
2023-01-17T07:30:09.238Z,3.01
2023-01-17T07:31:12.409Z,3.05
2023-01-17T07:32:15.527Z,3.08
2023-01-17T07:33:18.803Z,3.10
2023-01-17T07:34:22.094Z,3.11
2023-01-17T07:35:28.141Z,3.13
2023-01-17T07:36:31.424Z,3.16
2023-01-17T07:37:34.608Z,3.16
2023-01-17T07:38:37.829Z,3.18
2023-01-17T07:39:40.995Z,3.19
2023-01-17T07:40:44.878Z,3.19
2023-01-17T07:41:48.046Z,3.22
2023-01-17T07:42:51.128Z,3.22
2023-01-17T07:43:56.320Z,3.23
2023-01-17T07:45:00.113Z,3.24
2023-01-17T07:46:06.464Z,3.25
2023-01-17T07:47:09.890Z,3.25
2023-01-17T07:48:13.169Z,3.24
2023-01-17T07:49:16.251Z,3.22
2023-01-17T07:50:19.448Z,3.20
2023-01-17T07:51:22.636Z,3.19
2023-01-17T07:52:25.832Z,3.19
2023-01-17T07:53:30.998Z,3.16
2023-01-17T07:54:34.220Z,3.17
2023-01-17T07:55:37.391Z,3.17
2023-01-17T07:56:42.577Z,3.17
2023-01-17T07:57:50.497Z,3.18
2023-01-17T07:58:53.699Z,3.20
2023-01-17T07:59:57.050Z,3.21
2023-01-17T08:01:08.749Z,3.21
2023-01-17T08:02:21.120Z,3.23
2023-01-17T08:03:24.363Z,3.26
2023-01-17T08:04:28.241Z,3.28
2023-01-17T08:05:31.458Z,3.29
2023-01-17T08:06:34.670Z,3.31
2023-01-17T08:07:38.074Z,3.33
2023-01-17T08:08:41.202Z,3.35
2023-01-17T08:09:46.349Z,3.36
2023-01-17T08:10:51.018Z,3.36
2023-01-17T08:11:54.289Z,3.34
2023-01-17T08:12:57.588Z,3.31
2023-01-17T08:14:00.759Z,3.30
2023-01-17T08:15:04.895Z,3.30
2023-01-17T08:16:10.610Z,3.31
2023-01-17T08:17:15.778Z,3.33
2023-01-17T08:18:18.995Z,3.38
2023-01-17T08:19:22.232Z,3.42
2023-01-17T08:20:27.978Z,3.47
2023-01-17T08:21:31.206Z,3.49
2023-01-17T08:22:34.385Z,3.52
2023-01-17T08:23:37.400Z,3.55
2023-01-17T08:24:41.437Z,3.59
2023-01-17T08:25:44.623Z,3.60
2023-01-17T08:26:47.720Z,3.61
2023-01-17T08:27:51.758Z,3.62
2023-01-17T08:28:56.331Z,3.65
2023-01-17T08:29:59.552Z,3.66
2023-01-17T08:31:09.153Z,3.67
2023-01-17T08:32:13.389Z,3.69
2023-01-17T08:33:16.594Z,3.72
2023-01-17T08:34:19.710Z,3.73
2023-01-17T08:35:22.918Z,3.78
2023-01-17T08:36:28.040Z,3.78
2023-01-17T08:37:31.065Z,3.81
2023-01-17T08:38:34.343Z,3.85
2023-01-17T08:39:37.583Z,3.86
2023-01-17T08:40:40.606Z,3.89
2023-01-17T08:41:43.805Z,3.91
2023-01-17T08:42:57.853Z,3.94
2023-01-17T08:44:01.475Z,3.96
2023-01-17T08:45:07.902Z,3.99
2023-01-17T08:46:11.551Z,4.03
2023-01-17T08:47:14.836Z,4.08
2023-01-17T08:48:18.034Z,4.10
2023-01-17T08:49:21.189Z,4.13
2023-01-17T08:50:25.512Z,4.13
2023-01-17T08:51:29.475Z,4.14
2023-01-17T08:52:32.848Z,4.15
2023-01-17T08:53:36.048Z,4.18
2023-01-17T08:54:39.231Z,4.19
2023-01-17T08:55:42.471Z,4.22
2023-01-17T08:56:47.438Z,4.25
2023-01-17T08:57:51.183Z,4.27
2023-01-17T08:58:54.369Z,4.28
2023-01-17T08:59:58.509Z,4.28
2023-01-17T09:01:02.913Z,4.28
2023-01-17T09:02:11.481Z,4.29
2023-01-17T09:03:14.720Z,4.27
2023-01-17T09:04:18.040Z,4.26
2023-01-17T09:05:21.066Z,4.25
2023-01-17T09:06:24.345Z,4.26
2023-01-17T09:07:27.911Z,4.27
2023-01-17T09:08:31.279Z,4.28
2023-01-17T09:09:34.393Z,4.31
2023-01-17T09:10:37.547Z,4.30
2023-01-17T09:11:40.751Z,4.31
2023-01-17T09:12:43.944Z,4.31
2023-01-17T09:13:47.129Z,4.30
2023-01-17T09:14:50.306Z,4.30
2023-01-17T09:15:58.848Z,4.32
2023-01-17T09:17:02.065Z,4.32
2023-01-17T09:18:05.255Z,4.32
2023-01-17T09:19:09.738Z,4.32
2023-01-17T09:20:13.215Z,4.30
2023-01-17T09:21:17.445Z,4.30
2023-01-17T09:22:20.589Z,4.28
2023-01-17T09:23:24.587Z,4.27
2023-01-17T09:24:27.674Z,4.25
2023-01-17T09:25:30.853Z,4.25
2023-01-17T09:26:35.076Z,4.24
2023-01-17T09:27:38.259Z,4.23
2023-01-17T09:28:42.147Z,4.22
2023-01-17T09:29:45.347Z,4.24
2023-01-17T09:30:48.705Z,4.25
2023-01-17T09:31:51.750Z,4.26
2023-01-17T09:32:55.157Z,4.28
2023-01-17T09:33:58.346Z,4.31
2023-01-17T09:35:02.650Z,4.34
2023-01-17T09:36:06.583Z,4.35
2023-01-17T09:37:09.687Z,4.37
2023-01-17T09:38:13.936Z,4.41
2023-01-17T09:39:17.156Z,4.44
2023-01-17T09:40:23.887Z,4.46
2023-01-17T09:41:36.705Z,4.47
2023-01-17T09:42:40.681Z,4.49
2023-01-17T09:44:03.913Z,4.50
2023-01-17T09:45:13.484Z,4.52
2023-01-17T09:46:23.760Z,4.54
2023-01-17T09:47:36.618Z,4.56
2023-01-17T09:48:40.361Z,4.57
2023-01-17T09:49:45.779Z,4.58
2023-01-17T09:51:01.426Z,4.59
2023-01-17T09:52:06.606Z,4.60
2023-01-17T09:53:16.317Z,4.61
2023-01-17T09:54:24.811Z,4.62
2023-01-17T09:55:36.845Z,4.63
2023-01-17T09:56:46.593Z,4.63
2023-01-17T09:58:02.302Z,4.65
2023-01-17T09:59:33.166Z,4.65
2023-01-17T10:00:36.617Z,4.64
2023-01-17T10:02:01.301Z,4.63
2023-01-17T10:03:32.262Z,4.63
2023-01-17T10:04:39.066Z,4.64
2023-01-17T10:06:20.520Z,4.65
2023-01-17T10:07:46.700Z,4.65
2023-01-17T10:10:21.022Z,4.76
2023-01-17T10:11:39.635Z,4.65
2023-01-17T10:12:51.988Z,4.63
2023-01-17T10:14:10.494Z,4.63
2023-01-17T10:15:35.484Z,4.61
2023-01-17T10:18:33.978Z,4.71
2023-01-17T10:21:14.191Z,4.59
2023-01-17T10:22:37.193Z,4.57
2023-01-17T10:24:03.158Z,4.55
2023-01-17T10:25:15.898Z,4.55
2023-01-17T10:26:24.972Z,4.54
2023-01-17T10:27:40.733Z,4.57
2023-01-17T10:28:50.581Z,4.57
2023-01-17T10:29:53.649Z,4.57
2023-01-17T10:31:03.449Z,4.59
2023-01-17T10:32:10.253Z,4.59
2023-01-17T10:33:19.684Z,4.61
2023-01-17T10:34:38.464Z,4.64
2023-01-17T10:35:45.106Z,4.67
2023-01-17T10:36:59.665Z,4.77
2023-01-17T10:38:06.372Z,4.77
2023-01-17T10:39:21.916Z,4.80
2023-01-17T13:56:32.685Z,3.19
2023-01-17T13:57:43.126Z,3.17
2023-01-17T13:58:51.030Z,3.24
2023-01-17T13:59:56.039Z,3.31
2023-01-17T14:00:59.559Z,3.37
2023-01-17T14:02:02.850Z,3.42
2023-01-17T14:03:09.637Z,3.46
2023-01-17T14:04:13.088Z,3.51
2023-01-17T14:05:22.315Z,3.54
2023-01-17T14:06:31.146Z,3.59
2023-01-17T14:07:37.418Z,3.63
2023-01-17T14:08:44.127Z,3.66
2023-01-17T14:09:49.860Z,3.69
2023-01-17T14:10:56.115Z,3.72
2023-01-17T14:12:14.656Z,3.75
2023-01-17T14:13:35.954Z,3.77
2023-01-17T14:15:55.959Z,3.93
2023-01-17T14:17:17.371Z,3.84
2023-01-17T14:18:38.720Z,3.84
2023-01-17T14:19:50.133Z,3.84
2023-01-17T14:20:56.894Z,3.84
2023-01-17T14:22:21.900Z,3.82
2023-01-17T14:23:28.659Z,3.82
2023-01-17T14:24:32.150Z,3.81
2023-01-17T14:25:40.369Z,3.79
2023-01-17T14:26:56.045Z,3.76
2023-01-17T14:28:02.746Z,3.77
2023-01-17T14:29:38.343Z,3.77
2023-01-17T14:30:42.022Z,3.77
2023-01-17T14:31:46.058Z,3.77
2023-01-17T14:33:02.429Z,3.76
2023-01-17T14:34:13.168Z,3.77
2023-01-17T14:35:21.163Z,3.76
2023-01-17T14:36:32.446Z,3.76
2023-01-17T14:37:43.010Z,3.74
2023-01-17T14:38:45.871Z,3.72
2023-01-17T14:39:50.746Z,3.70
2023-01-17T14:41:04.167Z,3.67
2023-01-17T14:42:10.901Z,3.66
2023-01-17T14:43:17.284Z,3.65
2023-01-17T14:44:21.300Z,3.67
2023-01-17T14:45:28.235Z,3.68
2023-01-17T14:46:32.104Z,3.71
2023-01-17T14:47:40.680Z,3.74
2023-01-17T14:48:43.869Z,3.76
2023-01-17T14:49:46.948Z,3.80
2023-01-17T14:51:01.182Z,3.82
2023-01-17T14:52:05.770Z,3.86
2023-01-17T14:53:15.672Z,3.89
2023-01-17T14:54:21.493Z,3.90
2023-01-17T14:55:26.533Z,3.92
2023-01-17T14:56:30.844Z,3.93
2023-01-17T14:57:34.031Z,3.93
2023-01-17T14:58:38.698Z,3.95
2023-01-17T14:59:41.896Z,3.96
2023-01-17T15:00:45.333Z,3.99
2023-01-17T15:02:07.221Z,4.00
2023-01-17T15:03:03.737Z,4.02
2023-01-17T15:04:06.937Z,4.02
2023-01-17T15:05:15.245Z,4.03
2023-01-17T15:06:24.472Z,4.04
2023-01-17T15:07:28.257Z,4.05
2023-01-17T15:08:34.827Z,4.06
2023-01-17T15:09:38.317Z,4.07
2023-01-17T15:10:48.058Z,4.07
2023-01-17T15:11:52.798Z,4.08
2023-01-17T15:12:59.502Z,4.08
2023-01-17T15:14:05.405Z,4.07
2023-01-17T15:15:29.728Z,4.07
2023-01-17T15:16:35.932Z,4.09
2023-01-17T15:17:39.130Z,4.08
2023-01-17T15:18:42.819Z,4.08
2023-01-17T15:19:49.171Z,4.08
2023-01-17T15:21:03.325Z,4.09
2023-01-17T15:22:06.705Z,4.10
2023-01-17T15:23:13.315Z,4.12
2023-01-17T15:24:22.660Z,4.12
2023-01-17T15:25:26.639Z,4.13
2023-01-17T15:26:33.636Z,4.14
2023-01-17T15:27:37.746Z,4.15
2023-01-17T15:28:41.843Z,4.15
2023-01-17T15:29:46.197Z,4.16
2023-01-17T15:31:01.897Z,4.16
2023-01-17T15:32:06.773Z,4.16
2023-01-17T15:33:13.487Z,4.17
2023-01-17T15:34:38.078Z,4.18
2023-01-17T15:35:41.164Z,4.18
2023-01-17T15:36:47.772Z,4.19
2023-01-17T15:37:55.382Z,4.17
2023-01-17T15:39:01.667Z,4.16
2023-01-17T15:40:17.397Z,4.15
2023-01-17T15:41:22.487Z,4.15
2023-01-17T15:42:30.715Z,4.15
2023-01-17T15:43:35.300Z,4.14
2023-01-17T15:44:49.546Z,4.14
2023-01-17T15:45:58.072Z,4.14
2023-01-17T15:47:01.288Z,4.15
2023-01-17T15:48:33.753Z,4.15
2023-01-17T15:49:36.741Z,4.15
2023-01-17T15:50:42.650Z,4.13
2023-01-17T15:51:54.887Z,4.12
2023-01-17T15:53:01.358Z,4.10
2023-01-17T15:54:24.773Z,4.09
2023-01-17T15:55:33.802Z,4.08
2023-01-17T15:56:37.338Z,4.09
2023-01-17T15:57:43.475Z,4.05
2023-01-17T15:58:48.500Z,4.03
2023-01-17T16:00:17.775Z,4.03
2023-01-17T16:01:26.932Z,4.00
2023-01-17T16:02:44.672Z,4.00
2023-01-17T16:03:54.576Z,4.00
2023-01-17T16:04:59.186Z,3.98
2023-01-17T16:06:03.900Z,3.99
2023-01-17T16:07:13.025Z,3.97
2023-01-17T16:08:28.802Z,3.95
2023-01-17T16:09:38.191Z,3.92
2023-01-17T16:10:42.589Z,3.91
2023-01-17T16:11:45.785Z,3.89
2023-01-17T16:12:51.987Z,3.88
2023-01-17T16:13:55.412Z,3.87
2023-01-17T16:15:11.687Z,3.86
2023-01-17T16:16:15.091Z,3.87
2023-01-17T16:17:18.312Z,3.87
2023-01-17T16:18:23.832Z,3.87
2023-01-17T16:19:27.156Z,3.88
2023-01-17T16:20:48.589Z,3.87
2023-01-17T16:21:51.782Z,3.86
2023-01-17T16:22:54.972Z,3.85
2023-01-17T16:23:59.256Z,3.84
2023-01-17T16:25:02.504Z,3.84
2023-01-17T16:26:05.925Z,3.83
2023-01-17T16:27:09.113Z,3.84
2023-01-17T16:28:12.335Z,3.82
2023-01-17T16:29:15.523Z,3.81
2023-01-17T16:30:22.357Z,3.83
2023-01-17T16:31:25.630Z,3.84
2023-01-17T16:32:28.753Z,3.85
2023-01-17T16:33:31.948Z,3.86
2023-01-17T16:34:35.468Z,3.86
2023-01-17T16:35:39.743Z,3.88
2023-01-17T16:36:42.943Z,3.89
2023-01-17T16:37:52.165Z,3.89
2023-01-17T16:38:55.548Z,3.90
2023-01-17T16:39:58.714Z,3.91
2023-01-17T16:41:03.985Z,3.90
2023-01-17T16:42:08.855Z,3.91
2023-01-17T16:43:13.635Z,3.92
2023-01-17T16:44:16.815Z,3.91
2023-01-17T16:45:20.058Z,3.91
2023-01-17T16:46:23.161Z,3.91
2023-01-17T16:47:26.188Z,3.91
2023-01-17T16:48:29.155Z,3.90
2023-01-17T16:49:32.432Z,3.90
2023-01-17T16:50:38.563Z,3.89
2023-01-17T16:51:43.330Z,3.90
2023-01-17T16:52:46.423Z,3.89
2023-01-17T16:53:49.382Z,3.89
2023-01-17T16:54:52.322Z,3.89
2023-01-17T16:55:57.897Z,3.89
2023-01-17T16:57:01.077Z,3.89
2023-01-17T16:58:04.245Z,3.89
2023-01-17T16:59:07.491Z,3.88
2023-01-17T17:00:11.852Z,3.88
2023-01-17T17:01:17.301Z,3.87
2023-01-17T17:02:20.582Z,3.85
2023-01-17T17:03:23.815Z,3.85
2023-01-17T17:04:26.764Z,3.84
2023-01-17T17:05:31.699Z,3.83
2023-01-17T17:06:35.237Z,3.81
2023-01-17T17:07:45.617Z,3.77
2023-01-17T17:08:48.631Z,3.76
2023-01-17T17:09:51.741Z,3.74
2023-01-17T17:10:55.405Z,3.71
2023-01-17T17:11:58.527Z,3.69
2023-01-17T17:13:02.924Z,3.67
2023-01-17T17:14:06.085Z,3.65
2023-01-17T17:15:10.185Z,3.63
2023-01-17T17:16:17.166Z,3.61
2023-01-17T17:17:20.274Z,3.60
2023-01-17T17:18:23.334Z,3.59
2023-01-17T17:19:27.635Z,3.60
2023-01-17T17:20:31.619Z,3.59
2023-01-17T17:21:36.882Z,3.59
2023-01-17T17:22:43.368Z,3.60
2023-01-17T17:23:48.341Z,3.60
2023-01-17T17:24:51.454Z,3.59
2023-01-17T17:25:57.554Z,3.57
2023-01-17T17:27:00.735Z,3.56
2023-01-17T17:28:04.954Z,3.54
2023-01-17T17:29:10.414Z,3.53
2023-01-17T17:30:14.024Z,3.53
2023-01-17T17:31:17.316Z,3.53
2023-01-17T17:32:20.596Z,3.52
2023-01-17T17:33:23.757Z,3.53
2023-01-17T17:34:27.634Z,3.53
2023-01-17T17:35:35.446Z,3.51
2023-01-17T17:36:39.079Z,3.50
2023-01-17T17:37:42.248Z,3.50
2023-01-17T17:38:51.363Z,3.50
2023-01-17T17:39:57.758Z,3.52
2023-01-17T17:41:05.764Z,3.50
2023-01-17T17:42:08.869Z,3.51
2023-01-17T17:43:12.255Z,3.51
2023-01-17T17:44:15.860Z,3.51
2023-01-17T17:45:19.066Z,3.52
2023-01-17T17:46:24.931Z,3.52
2023-01-17T17:47:29.938Z,3.52
2023-01-17T17:48:33.032Z,3.50
2023-01-17T17:49:36.150Z,3.50
2023-01-17T17:50:39.204Z,3.50
2023-01-17T17:51:44.190Z,3.49
2023-01-17T17:52:47.916Z,3.50
2023-01-17T17:53:52.235Z,3.49
2023-01-17T17:54:55.392Z,3.49
2023-01-17T17:56:05.937Z,3.49
2023-01-17T17:57:09.439Z,3.48
2023-01-17T17:58:12.595Z,3.48
2023-01-17T17:59:18.666Z,3.47
2023-01-17T18:00:22.648Z,3.46
2023-01-17T18:01:26.046Z,3.45
2023-01-17T18:02:29.434Z,3.44
2023-01-17T18:03:33.399Z,3.45
2023-01-17T18:04:37.131Z,3.44
2023-01-17T18:05:42.017Z,3.44
2023-01-17T18:06:45.438Z,3.44
2023-01-17T18:07:50.899Z,3.44
2023-01-17T18:08:53.713Z,3.44
2023-01-17T18:09:56.807Z,3.43
2023-01-17T18:11:01.787Z,3.44
2023-01-17T18:12:05.348Z,3.43
2023-01-17T18:13:08.539Z,3.42